Time;durP1;ratioP1;P1;durP2;ratioP2;P2;SDS_P1;SDS_P2;PMS_P1;PMS_P2;Temp;Humidity;BMP_temperature;BMP_pressure;BME280_temperature;BME280_humidity;BME280_pressure;Samples;Min_cycle;Max_cycle;Signal;HPM_P1;HPM_P2
2022/09/21 00:01:09;;;;;;;2.00;0.77;;;7.10;99.90;;;;;;5014611;28;20763;-85
2022/09/21 00:03:36;;;;;;;3.53;1.00;;;7.10;99.90;;;;;;5013505;28;20426;-83
2022/09/21 00:06:07;;;;;;;3.30;1.40;;;7.10;99.90;;;;;;5012530;28;20426;-87
2022/09/21 00:08:33;;;;;;;3.73;0.73;;;7.10;99.90;;;;;;5013230;28;20479;-85
2022/09/21 00:11:03;;;;;;;2.87;0.70;;;7.10;99.90;;;;;;5014120;28;20424;-89
2022/09/21 00:13:32;;;;;;;4.07;1.00;;;7.10;99.90;;;;;;5015425;28;20414;-83
2022/09/21 00:15:58;;;;;;;2.13;0.80;;;7.00;99.90;;;;;;5014343;28;20515;-86
2022/09/21 00:18:24;;;;;;;1.77;0.87;;;7.00;99.90;;;;;;5013454;28;20429;-83
2022/09/21 00:20:51;;;;;;;3.07;1.10;;;7.00;99.90;;;;;;5013406;28;20417;-83
2022/09/21 00:23:17;;;;;;;2.70;1.23;;;7.00;99.90;;;;;;5013041;28;20879;-87
2022/09/21 00:25:43;;;;;;;10.40;1.40;;;7.00;99.90;;;;;;5014041;28;20955;-92
2022/09/21 00:28:08;;;;;;;3.03;1.50;;;7.10;99.90;;;;;;5012206;28;20499;-86
2022/09/21 00:30:34;;;;;;;5.53;0.87;;;7.10;99.90;;;;;;5012782;28;20182;-92
2022/09/21 00:32:59;;;;;;;2.67;0.70;;;7.10;99.90;;;;;;5013016;28;20645;-83
2022/09/21 00:35:25;;;;;;;0.97;0.77;;;7.10;99.90;;;;;;5012863;28;20180;-83
2022/09/21 00:37:50;;;;;;;3.13;1.07;;;6.90;99.90;;;;;;5012515;28;20646;-91
2022/09/21 00:40:16;;;;;;;2.40;1.27;;;6.90;99.90;;;;;;5012933;28;20261;-85
2022/09/21 00:42:42;;;;;;;4.87;0.57;;;6.90;99.90;;;;;;5012299;28;20185;-92
2022/09/21 00:45:19;;;;;;;1.47;0.50;;;6.90;99.90;;;;;;5032978;28;20217;-84
2022/09/21 00:47:49;;;;;;;5.03;0.80;;;6.90;99.90;;;;;;5023506;28;20629;-88
2022/09/21 00:50:18;;;;;;;2.50;0.73;;;6.90;99.90;;;;;;5018626;28;20847;-91
2022/09/21 00:52:48;;;;;;;1.37;0.77;;;6.90;99.90;;;;;;5034294;28;20832;-91
2022/09/21 00:55:21;;;;;;;1.47;0.60;;;6.90;99.90;;;;;;5029277;28;20502;-88
2022/09/21 00:58:01;;;;;;;1.57;0.70;;;6.90;99.90;;;;;;5011866;28;20430;-92
2022/09/21 01:00:30;;;;;;;2.43;0.70;;;6.70;99.90;;;;;;5032620;28;20412;-93
2022/09/21 01:03:00;;;;;;;1.60;0.57;;;6.70;99.90;;;;;;5036187;28;20940;-92
2022/09/21 01:05:26;;;;;;;3.83;0.97;;;6.70;99.90;;;;;;5026594;28;20426;-92
2022/09/21 01:07:53;;;;;;;1.60;0.50;;;6.60;99.90;;;;;;5034069;28;20478;-89
2022/09/21 01:10:20;;;;;;;1.63;0.50;;;6.60;99.90;;;;;;5034547;28;20423;-89
2022/09/21 01:13:06;;;;;;;1.43;0.60;;;6.60;99.90;;;;;;5010941;28;20507;-91
2022/09/21 01:15:55;;;;;;;2.90;1.20;;;6.70;99.90;;;;;;5034463;28;20418;-92
2022/09/21 01:18:46;;;;;;;1.73;0.60;;;6.60;99.90;;;;;;5034729;28;20396;-90
2022/09/21 01:21:34;;;;;;;2.33;0.70;;;6.60;99.90;;;;;;5034362;28;20430;-92
2022/09/21 01:24:11;;;;;;;2.23;0.80;;;6.50;99.90;;;;;;5033801;28;20418;-91
2022/09/21 01:26:57;;;;;;;2.93;1.20;;;6.50;99.90;;;;;;5027566;28;20410;-93
2022/09/21 01:29:33;;;;;;;2.53;0.90;;;6.40;99.90;;;;;;5033851;28;20460;-91
2022/09/21 01:32:23;;;;;;;6.57;1.17;;;6.40;99.90;;;;;;5033896;28;20473;-91
2022/09/21 01:35:13;;;;;;;2.90;1.13;;;6.40;99.90;;;;;;5034378;28;20457;-87
2022/09/21 01:37:59;;;;;;;2.57;0.80;;;6.40;99.90;;;;;;5033874;28;20415;-86
2022/09/21 01:40:42;;;;;;;2.63;0.70;;;6.40;99.90;;;;;;5034097;28;20419;-89
2022/09/21 01:43:14;;;;;;;1.47;0.73;;;6.40;99.90;;;;;;5033427;28;20459;-92
2022/09/21 01:45:44;;;;;;;1.57;0.80;;;6.40;99.90;;;;;;5034140;28;20411;-92
2022/09/21 01:48:14;;;;;;;2.23;0.90;;;6.30;99.90;;;;;;5034002;28;20472;-91
2022/09/21 01:50:45;;;;;;;1.83;0.50;;;6.30;99.90;;;;;;5034095;28;20449;-90
2022/09/21 01:53:19;;;;;;;2.17;1.07;;;6.30;99.90;;;;;;5033988;28;20415;-90
2022/09/21 01:55:51;;;;;;;1.47;0.57;;;6.30;99.90;;;;;;5034202;28;20858;-89
2022/09/21 01:58:32;;;;;;;3.10;0.77;;;6.30;99.90;;;;;;5033893;28;20407;-91
2022/09/21 02:00:58;;;;;;;2.80;0.37;;;6.30;99.90;;;;;;5016660;28;20418;-85
2022/09/21 02:03:40;;;;;;;2.97;1.10;;;6.40;99.90;;;;;;5034003;28;20424;-87
2022/09/21 02:06:08;;;;;;;2.93;1.17;;;6.30;99.90;;;;;;5034064;28;20906;-90
2022/09/21 02:08:35;;;;;;;2.40;0.80;;;6.20;99.90;;;;;;5033482;28;21010;-89
2022/09/21 02:11:01;;;;;;;2.63;1.10;;;6.20;99.90;;;;;;5034049;28;20419;-89
2022/09/21 02:13:33;;;;;;;1.63;1.03;;;6.30;99.90;;;;;;5033992;28;20900;-90
2022/09/21 02:16:04;;;;;;;2.23;0.67;;;6.20;99.90;;;;;;5033557;28;20402;-91
2022/09/21 02:18:56;;;;;;;2.60;0.60;;;6.10;99.90;;;;;;5033784;28;20415;-90
2022/09/21 02:21:35;;;;;;;1.70;0.57;;;6.00;99.90;;;;;;5033657;28;20412;-88
2022/09/21 02:24:30;;;;;;;2.97;1.03;;;6.10;99.90;;;;;;5015528;28;20424;-89
2022/09/21 02:27:12;;;;;;;2.07;0.50;;;6.10;99.90;;;;;;5033696;28;20429;-89
2022/09/21 02:29:45;;;;;;;2.70;0.40;;;6.10;99.90;;;;;;5033408;28;20474;-90
2022/09/21 02:32:32;;;;;;;3.23;0.80;;;6.00;99.90;;;;;;5033701;28;20803;-87
2022/09/21 02:35:02;;;;;;;6.40;0.87;;;6.10;99.90;;;;;;5033592;28;20405;-90
2022/09/21 02:38:29;;;;;;;2.00;1.50;;;6.00;99.90;;;;;;5033111;28;20454;-91
2022/09/21 02:41:08;;;;;;;1.93;0.90;;;6.00;99.90;;;;;;4954120;29;20414;-91
2022/09/21 02:43:38;;;;;;;2.00;0.70;;;6.00;99.90;;;;;;4934234;29;20478;-86
2022/09/21 02:46:24;;;;;;;2.67;0.97;;;6.00;99.90;;;;;;4993520;28;20543;-93
2022/09/21 02:48:53;;;;;;;3.70;0.47;;;6.00;99.90;;;;;;5013786;28;20480;-88
2022/09/21 02:51:31;;;;;;;2.20;0.63;;;6.00;99.90;;;;;;5013917;28;20423;-90
2022/09/21 02:54:00;;;;;;;3.20;0.50;;;5.80;99.90;;;;;;5018188;28;20407;-90
2022/09/21 02:56:27;;;;;;;2.77;0.87;;;5.90;99.90;;;;;;5030414;28;20437;-90
2022/09/21 02:58:55;;;;;;;2.37;0.53;;;5.90;99.90;;;;;;5027851;28;20488;-90
2022/09/21 03:01:22;;;;;;;3.03;1.10;;;5.90;99.90;;;;;;5030286;28;20443;-90
2022/09/21 03:03:48;;;;;;;2.57;0.73;;;5.90;99.90;;;;;;5002645;28;20474;-89
2022/09/21 03:06:13;;;;;;;4.10;1.00;;;5.80;99.90;;;;;;5016790;28;20411;-90
2022/09/21 03:08:39;;;;;;;1.80;1.10;;;5.80;99.90;;;;;;5016708;28;20212;-89
2022/09/21 03:11:05;;;;;;;2.07;1.07;;;5.80;99.90;;;;;;4999562;28;20187;-91
2022/09/21 03:13:31;;;;;;;1.37;0.73;;;5.80;99.90;;;;;;5016873;28;20481;-89
2022/09/21 03:16:02;;;;;;;2.70;0.83;;;5.80;99.90;;;;;;5017031;28;20412;-91
2022/09/21 03:18:28;;;;;;;1.57;0.80;;;5.70;99.90;;;;;;5016917;28;20182;-91
2022/09/21 03:20:54;;;;;;;1.20;0.73;;;5.70;99.90;;;;;;5016750;28;20409;-89
2022/09/21 03:23:19;;;;;;;2.40;0.60;;;5.70;99.90;;;;;;5016532;28;20840;-91
2022/09/21 03:25:45;;;;;;;2.33;0.70;;;5.80;99.90;;;;;;4999581;28;20188;-93
2022/09/21 03:28:12;;;;;;;2.43;0.60;;;5.80;99.90;;;;;;5017408;28;20668;-94
2022/09/21 03:30:38;;;;;;;2.53;0.87;;;5.70;99.90;;;;;;5018461;28;20172;-91
2022/09/21 03:33:04;;;;;;;2.70;0.80;;;5.70;99.90;;;;;;4998856;28;20411;-92
2022/09/21 03:35:34;;;;;;;2.33;0.67;;;5.70;99.90;;;;;;5016462;28;20559;-94
2022/09/21 03:38:00;;;;;;;3.00;0.97;;;5.80;99.90;;;;;;5016879;28;20899;-91
2022/09/21 03:40:26;;;;;;;4.17;1.33;;;5.70;99.90;;;;;;5016634;28;20428;-91
2022/09/21 03:42:53;;;;;;;2.00;0.60;;;5.60;99.90;;;;;;5000208;28;20784;-90
2022/09/21 03:45:20;;;;;;;2.80;0.97;;;5.70;99.90;;;;;;5036158;28;20430;-91
2022/09/21 03:47:46;;;;;;;1.30;0.50;;;5.70;99.90;;;;;;5036124;28;20463;-87
2022/09/21 03:50:12;;;;;;;2.97;0.97;;;5.60;99.90;;;;;;5035960;28;20425;-92
2022/09/21 03:52:38;;;;;;;2.50;1.03;;;5.60;99.90;;;;;;5035920;28;20512;-93
2022/09/21 03:55:05;;;;;;;1.57;0.70;;;5.50;99.90;;;;;;5036172;28;20699;-91
2022/09/21 03:57:34;;;;;;;3.57;1.00;;;5.50;99.90;;;;;;5036130;28;20177;-92
2022/09/21 04:00:02;;;;;;;1.70;1.40;;;5.50;99.90;;;;;;5036301;28;20422;-92
2022/09/21 04:02:28;;;;;;;2.87;0.73;;;5.50;99.90;;;;;;5036311;28;20445;-92
2022/09/21 04:04:54;;;;;;;1.80;1.03;;;5.50;99.90;;;;;;5036492;28;20494;-94
2022/09/21 04:07:19;;;;;;;3.90;1.13;;;5.50;99.90;;;;;;5035518;28;20417;-91
2022/09/21 04:09:45;;;;;;;1.70;0.60;;;5.40;99.90;;;;;;5035709;28;20199;-89
2022/09/21 04:12:11;;;;;;;2.50;1.17;;;5.40;99.90;;;;;;5035783;28;20167;-91
2022/09/21 04:14:36;;;;;;;3.07;1.00;;;5.40;99.90;;;;;;5035778;28;20182;-91
2022/09/21 04:17:02;;;;;;;3.17;0.80;;;5.40;99.90;;;;;;5035749;28;20410;-91
2022/09/21 04:19:27;;;;;;;3.10;0.70;;;5.40;99.90;;;;;;5036024;28;20180;-93
2022/09/21 04:21:55;;;;;;;1.13;0.50;;;5.40;99.90;;;;;;5035715;28;20213;-93
2022/09/21 04:24:21;;;;;;;1.87;0.53;;;5.40;99.90;;;;;;5036073;28;20899;-92
2022/09/21 04:26:47;;;;;;;2.20;0.60;;;5.30;99.90;;;;;;5035514;28;20915;-92
2022/09/21 04:29:13;;;;;;;2.80;1.63;;;5.30;99.90;;;;;;5018294;28;20485;-92
2022/09/21 04:31:40;;;;;;;3.53;0.73;;;5.40;99.90;;;;;;5035654;28;20632;-91
2022/09/21 04:34:05;;;;;;;2.17;1.27;;;5.30;99.90;;;;;;5038927;28;20417;-94
2022/09/21 04:36:31;;;;;;;3.13;0.97;;;5.30;99.90;;;;;;5034713;28;20927;-87
2022/09/21 04:38:58;;;;;;;2.63;1.13;;;5.40;99.90;;;;;;5034656;28;20250;-87
2022/09/21 04:41:26;;;;;;;2.43;1.17;;;5.30;99.90;;;;;;5034915;28;20180;-91
2022/09/21 04:43:52;;;;;;;1.90;0.50;;;5.30;99.90;;;;;;5034655;28;20466;-93
2022/09/21 04:46:19;;;;;;;3.10;1.43;;;5.40;99.90;;;;;;5039253;28;20424;-94
2022/09/21 04:48:45;;;;;;;2.23;0.77;;;5.40;99.90;;;;;;5038519;28;20221;-90
2022/09/21 04:51:12;;;;;;;1.23;0.60;;;5.40;99.90;;;;;;5041515;28;20418;-91
2022/09/21 04:53:41;;;;;;;1.50;0.83;;;5.40;99.90;;;;;;5041036;28;20933;-89
2022/09/21 04:56:08;;;;;;;5.40;0.60;;;5.40;99.90;;;;;;5037907;28;20414;-90
2022/09/21 04:58:34;;;;;;;3.10;1.30;;;5.40;99.90;;;;;;5037107;28;20429;-90
2022/09/21 05:01:00;;;;;;;3.00;1.10;;;5.40;99.90;;;;;;5019313;28;20453;-90
2022/09/21 05:03:26;;;;;;;3.80;1.10;;;5.40;99.90;;;;;;5020904;28;20260;-87
2022/09/21 05:05:55;;;;;;;3.63;0.90;;;5.40;99.90;;;;;;5040083;28;20413;-91
2022/09/21 05:10:01;;;;;;;2.67;1.63;;;5.40;99.90;;;;;;5038276;28;20541;-93
2022/09/21 05:11:14;;;;;;;2.03;1.47;;;5.30;99.90;;;;;;5038709;28;20405;-93
2022/09/21 05:13:40;;;;;;;1.43;0.60;;;5.40;99.90;;;;;;5019120;28;20418;-93
2022/09/21 05:16:06;;;;;;;2.50;1.17;;;5.30;99.90;;;;;;5036806;28;20418;-93
2022/09/21 05:18:31;;;;;;;4.43;1.50;;;5.20;99.90;;;;;;5038101;28;20417;-92
2022/09/21 05:20:59;;;;;;;2.50;1.30;;;5.30;99.90;;;;;;5037739;28;20174;-93
2022/09/21 05:23:25;;;;;;;2.60;1.13;;;5.30;99.90;;;;;;5035662;28;20182;-92
2022/09/21 05:25:51;;;;;;;2.23;1.13;;;5.30;99.90;;;;;;5037429;28;20413;-92
2022/09/21 05:28:18;;;;;;;2.83;1.30;;;5.40;99.90;;;;;;5037924;28;20467;-93
2022/09/21 05:31:28;;;;;;;3.00;1.17;;;5.40;99.90;;;;;;5038597;28;20413;-93
2022/09/21 05:34:10;;;;;;;4.33;2.10;;;5.40;99.90;;;;;;5020042;28;20446;-93
2022/09/21 05:36:40;;;;;;;6.13;2.03;;;5.40;99.90;;;;;;5038733;28;20834;-93
2022/09/21 05:39:06;;;;;;;5.50;1.93;;;5.50;99.90;;;;;;5041078;28;20433;-93
2022/09/21 05:41:32;;;;;;;3.53;1.93;;;5.60;99.90;;;;;;5041634;28;20403;-84
2022/09/21 05:43:58;;;;;;;4.83;1.67;;;5.80;99.90;;;;;;5040286;28;20468;-92
2022/09/21 05:46:57;;;;;;;4.13;1.30;;;5.90;99.90;;;;;;5042166;28;20409;-85
2022/09/21 05:49:39;;;;;;;4.70;1.67;;;6.20;99.90;;;;;;5041095;28;20418;-90
2022/09/21 05:52:34;;;;;;;5.57;2.10;;;6.20;99.90;;;;;;5043516;28;20426;-92
2022/09/21 05:55:03;;;;;;;4.83;1.50;;;6.20;99.90;;;;;;5025224;28;20430;-84
2022/09/21 05:57:43;;;;;;;3.60;1.60;;;6.10;99.90;;;;;;5041283;28;20416;-92
2022/09/21 06:00:17;;;;;;;4.80;1.93;;;6.10;99.90;;;;;;5041533;28;20409;-92
2022/09/21 06:03:04;;;;;;;3.53;2.60;;;6.20;99.90;;;;;;5039362;28;20425;-85
2022/09/21 06:05:30;;;;;;;4.50;2.13;;;6.40;99.90;;;;;;5019226;28;20468;-93
2022/09/21 06:07:55;;;;;;;3.47;1.43;;;6.50;99.90;;;;;;5037941;28;20422;-93
2022/09/21 06:10:23;;;;;;;2.70;1.70;;;6.60;99.90;;;;;;5037773;28;20206;-92
2022/09/21 06:12:48;;;;;;;2.13;1.40;;;6.80;99.90;;;;;;5039668;28;20216;-90
2022/09/21 06:15:14;;;;;;;2.40;1.03;;;7.00;99.90;;;;;;5041705;28;20439;-94
2022/09/21 06:17:39;;;;;;;2.13;0.93;;;7.20;99.90;;;;;;5039267;28;20181;-94
2022/09/21 06:20:06;;;;;;;3.77;0.97;;;7.30;99.90;;;;;;5023301;28;20180;-94
2022/09/21 06:22:32;;;;;;;1.87;0.70;;;7.60;99.90;;;;;;5024567;28;20267;-92
2022/09/21 06:24:57;;;;;;;3.07;1.27;;;7.90;99.90;;;;;;5041762;28;20502;-93
2022/09/21 06:27:23;;;;;;;2.50;0.63;;;8.30;99.90;;;;;;5042555;28;20443;-93
2022/09/21 06:29:48;;;;;;;2.17;0.67;;;8.80;99.90;;;;;;5046532;28;20804;-94
2022/09/21 06:32:14;;;;;;;2.47;1.30;;;10.20;99.90;;;;;;5047962;28;20177;-92
2022/09/21 06:34:39;;;;;;;2.50;1.03;;;10.60;99.90;;;;;;5049809;28;20172;-87
2022/09/21 06:37:05;;;;;;;1.67;0.80;;;11.10;99.90;;;;;;5049578;28;20176;-91
2022/09/21 06:39:30;;;;;;;1.63;0.77;;;12.40;7.30;;;;;;5028464;28;20724;-83
2022/09/21 06:41:56;;;;;;;1.83;1.20;;;14.30;1.00;;;;;;5036445;28;20215;-83
2022/09/21 06:44:21;;;;;;;2.40;0.87;;;15.40;1.00;;;;;;5040033;28;20292;-91
2022/09/21 06:46:47;;;;;;;3.10;0.73;;;16.20;1.00;;;;;;5035989;28;20715;-86
2022/09/21 06:49:12;;;;;;;1.93;0.87;;;16.70;1.00;;;;;;5036469;28;20263;-87
2022/09/21 06:51:38;;;;;;;1.23;0.47;;;17.00;99.90;;;;;;5034587;28;20176;-83
2022/09/21 06:54:04;;;;;;;1.07;0.53;;;17.20;99.90;;;;;;5035973;28;20177;-84
2022/09/21 06:56:29;;;;;;;1.13;0.50;;;17.20;99.90;;;;;;5035752;28;20208;-84
2022/09/21 06:58:55;;;;;;;1.17;0.43;;;17.30;99.90;;;;;;5035730;28;20477;-83
2022/09/21 07:01:20;;;;;;;2.60;1.20;;;17.40;1.00;;;;;;5035856;28;20356;-85
2022/09/21 07:03:50;;;;;;;2.00;0.60;;;17.40;99.90;;;;;;5018012;28;20186;-86
2022/09/21 07:06:19;;;;;;;2.13;1.27;;;17.60;99.90;;;;;;5035622;28;20235;-86
2022/09/21 07:08:46;;;;;;;2.80;0.77;;;17.60;99.90;;;;;;5035481;28;20474;-86
2022/09/21 07:11:26;;;;;;;3.00;1.60;;;17.90;7.60;;;;;;5022960;28;20420;-85
2022/09/21 07:13:51;;;;;;;2.60;1.83;;;18.10;99.90;;;;;;5038899;28;20418;-85
2022/09/21 07:16:18;;;;;;;4.13;2.00;;;18.50;99.90;;;;;;5035579;28;20916;-85
2022/09/21 07:18:43;;;;;;;3.20;2.23;;;18.40;99.90;;;;;;5035350;28;20756;-86
2022/09/21 07:21:10;;;;;;;3.03;1.13;;;18.50;99.90;;;;;;5035113;28;20421;-86
2022/09/21 07:23:36;;;;;;;3.30;1.23;;;18.80;99.90;;;;;;5017505;28;20201;-86
2022/09/21 07:26:07;;;;;;;2.30;1.50;;;19.00;99.90;;;;;;5035345;28;20409;-86
2022/09/21 07:28:33;;;;;;;6.47;1.80;;;19.10;99.90;;;;;;5035279;28;20495;-86
2022/09/21 07:31:10;;;;;;;2.80;1.23;;;19.30;99.90;;;;;;5035215;28;20425;-86
2022/09/21 07:33:36;;;;;;;2.60;1.50;;;19.30;99.90;;;;;;5035198;28;20408;-84
2022/09/21 07:36:08;;;;;;;2.63;1.20;;;20.30;99.90;;;;;;5017472;28;20511;-85
2022/09/21 07:38:55;;;;;;;2.23;1.90;;;20.50;99.90;;;;;;5034887;28;20875;-84
2022/09/21 07:41:21;;;;;;;3.83;2.30;;;20.40;99.90;;;;;;5016460;28;20429;-85
2022/09/21 07:43:47;;;;;;;3.10;1.57;;;20.40;99.90;;;;;;5034863;28;20456;-89
2022/09/21 07:46:14;;;;;;;2.50;2.00;;;20.40;99.90;;;;;;5017458;28;20185;-84
2022/09/21 07:48:39;;;;;;;4.27;1.50;;;20.90;99.90;;;;;;5034951;28;20205;-81
2022/09/21 07:51:08;;;;;;;5.47;1.83;;;21.00;94.20;;;;;;5034004;28;20906;-80
2022/09/21 07:53:39;;;;;;;3.10;1.70;;;21.00;95.60;;;;;;5034173;28;20174;-86
2022/09/21 07:56:10;;;;;;;3.40;2.17;;;20.90;92.70;;;;;;5034290;28;20413;-83
2022/09/21 08:01:20;;;;;;;2.57;1.83;;;21.10;89.60;;;;;;5034879;28;20424;-88
2022/09/21 08:03:54;;;;;;;3.70;1.80;;;21.50;86.90;;;;;;5022686;28;20429;-87
2022/09/21 08:06:21;;;;;;;3.03;2.17;;;21.90;84.80;;;;;;5014774;28;20230;-86
2022/09/21 08:08:48;;;;;;;3.63;1.60;;;22.00;72.50;;;;;;5014904;28;20418;-91
2022/09/21 08:11:15;;;;;;;2.13;1.40;;;22.10;81.80;;;;;;5014815;28;20418;-83
2022/09/21 08:13:40;;;;;;;2.90;1.93;;;21.90;61.80;;;;;;5015239;28;20513;-85
2022/09/21 08:16:06;;;;;;;3.97;2.47;;;22.30;66.40;;;;;;5014753;28;20437;-90
2022/09/21 08:18:35;;;;;;;2.93;1.67;;;;;;;;;;5015806;28;20210;-81
2022/09/21 08:21:05;;;;;;;2.63;1.90;;;23.50;43.70;;;;;;5016601;28;20236;-87
2022/09/21 08:23:30;;;;;;;3.73;2.33;;;23.30;50.10;;;;;;4998206;28;20418;-87
2022/09/21 08:26:05;;;;;;;3.80;2.37;;;23.40;39.50;;;;;;5015817;28;20426;-87
2022/09/21 08:28:30;;;;;;;3.80;2.23;;;23.30;38.70;;;;;;4997447;28;20714;-85
2022/09/21 08:31:00;;;;;;;3.03;1.47;;;23.60;41.30;;;;;;5024094;28;20421;-84
2022/09/21 08:33:26;;;;;;;6.90;2.20;;;24.10;38.20;;;;;;5038956;28;20181;-85
2022/09/21 08:35:56;;;;;;;2.53;2.17;;;23.40;28.40;;;;;;5036606;28;20468;-84
2022/09/21 08:38:22;;;;;;;2.07;1.57;;;23.60;33.70;;;;;;5034561;28;20964;-85
2022/09/21 08:40:49;;;;;;;6.10;1.60;;;23.80;33.70;;;;;;5033778;28;20449;-84
2022/09/21 08:43:30;;;;;;;2.40;1.97;;;24.00;31.20;;;;;;5024821;28;20228;-85
2022/09/21 08:46:02;;;;;;;2.63;1.80;;;24.40;40.70;;;;;;5033146;28;20405;-83
2022/09/21 08:48:32;;;;;;;2.50;2.23;;;24.40;31.10;;;;;;5034202;28;20472;-86
2022/09/21 08:51:05;;;;;;;3.07;1.80;;;24.40;39.90;;;;;;5032199;28;20760;-88
2022/09/21 08:53:41;;;;;;;3.33;1.90;;;24.40;32.30;;;;;;5033826;28;20921;-83
2022/09/21 08:56:14;;;;;;;1.93;1.37;;;24.90;34.10;;;;;;5036029;28;20480;-89
2022/09/21 08:58:41;;;;;;;3.37;2.30;;;24.60;30.00;;;;;;5035922;28;20437;-84
2022/09/21 09:01:26;;;;;;;2.37;1.20;;;24.80;30.10;;;;;;5035391;28;20417;-87
2022/09/21 09:03:51;;;;;;;2.67;1.33;;;24.70;29.10;;;;;;5034208;28;20417;-83
2022/09/21 09:06:42;;;;;;;1.50;1.40;;;24.90;28.90;;;;;;5035301;28;20420;-90
2022/09/21 09:09:43;;;;;;;2.30;1.50;;;24.90;25.50;;;;;;5033814;28;20222;-88
2022/09/21 09:12:33;;;;;;;3.40;1.30;;;24.20;18.20;;;;;;5050172;28;20403;-85
2022/09/21 09:15:35;;;;;;;2.70;1.70;;;24.70;22.70;;;;;;5053676;28;20463;-88
2022/09/21 09:18:07;;;;;;;1.10;0.70;;;24.30;14.60;;;;;;5057239;28;20408;-85
2022/09/21 09:20:38;;;;;;;1.80;1.20;;;25.10;29.90;;;;;;5054990;28;20415;-84
2022/09/21 09:23:19;;;;;;;1.17;0.67;;;25.60;29.60;;;;;;5060033;28;20436;-91
2022/09/21 09:25:49;;;;;;;2.37;1.00;;;25.40;20.90;;;;;;5037601;28;20830;-88
2022/09/21 09:28:43;;;;;;;1.70;0.60;;;25.30;19.40;;;;;;5034075;28;20944;-93
2022/09/21 09:31:17;;;;;;;1.20;0.70;;;25.40;20.20;;;;;;5028722;28;20433;-87
2022/09/21 09:34:10;;;;;;;2.13;0.70;;;25.10;14.00;;;;;;5037680;28;20767;-87
2022/09/21 09:36:38;;;;;;;1.90;0.60;;;25.10;12.40;;;;;;5034106;28;20914;-87
2022/09/21 09:39:14;;;;;;;0.97;0.70;;;24.70;10.20;;;;;;5033735;28;20401;-84
2022/09/21 09:42:07;;;;;;;1.63;0.30;;;24.60;8.60;;;;;;5035114;28;20776;-83
2022/09/21 09:44:41;;;;;;;1.60;0.33;;;24.60;7.20;;;;;;5020315;28;20548;-84
2022/09/21 09:47:21;;;;;;;0.80;0.27;;;25.40;9.70;;;;;;5015209;28;20449;-86
2022/09/21 09:49:57;;;;;;;3.53;0.30;;;25.90;13.10;;;;;;5016604;28;20477;-86
2022/09/21 09:52:24;;;;;;;1.20;0.30;;;26.70;16.00;;;;;;5016407;28;20402;-87
2022/09/21 09:54:49;;;;;;;0.50;0.23;;;26.60;13.50;;;;;;5017291;28;20426;-93
2022/09/21 09:57:25;;;;;;;0.50;0.20;;;26.60;11.80;;;;;;5015910;28;20830;-88
2022/09/21 09:59:55;;;;;;;1.03;0.30;;;26.10;2.20;;;;;;5015187;28;20178;-86
2022/09/21 10:02:23;;;;;;;0.40;0.20;;;26.30;5.60;;;;;;4997110;28;20960;-87
2022/09/21 10:05:04;;;;;;;0.50;0.20;;;25.40;1.00;;;;;;5016881;28;20408;-88
2022/09/21 10:07:40;;;;;;;0.70;0.30;;;26.10;7.90;;;;;;5000255;28;20418;-88
2022/09/21 10:10:29;;;;;;;0.80;0.50;;;26.10;1.10;;;;;;5000520;28;20428;-84
2022/09/21 10:13:01;;;;;;;2.43;0.77;;;26.50;1.00;;;;;;5009163;28;20429;-85
2022/09/21 10:15:28;;;;;;;0.77;0.30;;;26.40;1.80;;;;;;5018639;28;20515;-88
2022/09/21 10:18:13;;;;;;;1.47;0.20;;;25.80;1.00;;;;;;5018941;28;20775;-89
2022/09/21 10:20:58;;;;;;;1.00;0.20;;;26.20;6.00;;;;;;5023830;28;20767;-85
2022/09/21 10:23:27;;;;;;;0.73;0.20;;;25.50;1.00;;;;;;5003381;28;20561;-85
2022/09/21 10:26:13;;;;;;;1.23;0.20;;;25.80;6.70;;;;;;5020233;28;20415;-90
2022/09/21 10:28:55;;;;;;;0.40;0.20;;;26.20;1.00;;;;;;5019688;28;20476;-92
2022/09/21 10:31:30;;;;;;;1.63;0.33;;;26.30;3.30;;;;;;5000178;28;20426;-91
2022/09/21 10:34:14;;;;;;;3.23;0.80;;;26.20;1.00;;;;;;5019985;28;20752;-87
2022/09/21 10:36:48;;;;;;;0.70;0.30;;;26.40;1.00;;;;;;5015500;28;20433;-87
2022/09/21 10:39:24;;;;;;;1.13;0.50;;;27.00;2.70;;;;;;5017801;28;20410;-87
2022/09/21 10:41:50;;;;;;;1.27;0.50;;;26.50;1.00;;;;;;5018638;28;20414;-84
2022/09/21 10:44:17;;;;;;;0.57;0.27;;;26.70;1.00;;;;;;5030431;28;20506;-86
2022/09/21 10:46:44;;;;;;;1.00;0.30;;;25.30;1.00;;;;;;5037309;28;20669;-89
2022/09/21 10:49:42;;;;;;;1.30;0.70;;;25.60;1.00;;;;;;5037532;28;20469;-90
2022/09/21 10:52:07;;;;;;;1.30;0.50;;;26.20;1.00;;;;;;5036306;28;20455;-85
2022/09/21 10:54:33;;;;;;;1.80;0.70;;;26.00;1.00;;;;;;5037141;28;20420;-89
2022/09/21 10:57:02;;;;;;;1.43;0.70;;;26.20;1.00;;;;;;5036999;28;20170;-87
2022/09/21 10:59:31;;;;;;;1.87;0.60;;;25.40;1.00;;;;;;5037486;28;20183;-89
2022/09/21 11:01:59;;;;;;;1.07;0.70;;;24.60;1.00;;;;;;5037871;28;20413;-90
2022/09/21 11:04:45;;;;;;;1.70;0.80;;;25.30;1.00;;;;;;5038385;28;20420;-90
2022/09/21 11:07:29;;;;;;;3.43;1.13;;;25.70;1.00;;;;;;5038385;28;20409;-90
2022/09/21 11:10:02;;;;;;;2.13;0.80;;;25.40;1.00;;;;;;5039800;28;20979;-84
2022/09/21 11:13:03;;;;;;;1.43;0.80;;;26.10;1.00;;;;;;5038611;28;20780;-89
2022/09/21 11:15:34;;;;;;;1.57;0.63;;;25.90;1.00;;;;;;5056731;28;20438;-86
2022/09/21 11:18:37;;;;;;;2.30;0.50;;;26.20;1.00;;;;;;5056125;28;20416;-85
2022/09/21 11:21:20;;;;;;;3.53;1.47;;;25.90;1.00;;;;;;5045751;28;20485;-84
2022/09/21 11:23:58;;;;;;;2.10;0.43;;;26.10;1.00;;;;;;5055968;28;20462;-86
2022/09/21 11:26:34;;;;;;;0.73;0.70;;;26.20;1.00;;;;;;5055691;28;20416;-87
2022/09/21 11:29:11;;;;;;;1.83;0.83;;;26.00;1.00;;;;;;5056630;28;20871;-86
2022/09/21 11:31:58;;;;;;;2.10;0.90;;;26.20;1.00;;;;;;5055796;28;20808;-85
2022/09/21 11:34:34;;;;;;;1.50;0.80;;;26.00;1.00;;;;;;5055326;28;20477;-86
2022/09/21 11:37:12;;;;;;;2.00;0.60;;;26.20;1.00;;;;;;5055248;28;20399;-88
2022/09/21 11:39:51;;;;;;;1.50;0.90;;;26.50;1.00;;;;;;5055382;28;20416;-85
2022/09/21 11:42:27;;;;;;;1.80;0.87;;;26.50;1.00;;;;;;5055483;28;20916;-85
2022/09/21 11:44:59;;;;;;;1.60;0.63;;;26.60;1.00;;;;;;5055118;28;20448;-85
2022/09/21 11:47:57;;;;;;;1.93;0.80;;;26.80;1.00;;;;;;5055062;28;20408;-84
2022/09/21 11:50:44;;;;;;;1.63;0.50;;;26.70;1.00;;;;;;5053661;28;20868;-84
2022/09/21 11:53:28;;;;;;;1.17;0.40;;;26.70;1.00;;;;;;5055161;28;20428;-86
2022/09/21 11:56:06;;;;;;;0.70;0.70;;;26.80;1.00;;;;;;5055225;28;20451;-84
2022/09/21 11:59:17;;;;;;;1.73;0.40;;;26.40;1.00;;;;;;5037168;28;20412;-85
2022/09/21 12:01:57;;;;;;;0.90;0.50;;;26.50;1.00;;;;;;5054811;28;20514;-86
2022/09/21 12:04:47;;;;;;;3.37;0.57;;;26.10;1.00;;;;;;5055099;28;20489;-87
2022/09/21 12:07:56;;;;;;;1.53;0.73;;;26.10;1.00;;;;;;5055881;28;20466;-88
2022/09/21 12:10:46;;;;;;;0.90;0.40;;;25.70;1.00;;;;;;5056868;28;20522;-90
2022/09/21 12:13:50;;;;;;;1.17;0.40;;;25.90;1.00;;;;;;5055666;28;20787;-90
2022/09/21 12:16:25;;;;;;;2.80;0.50;;;24.60;1.00;;;;;;5055315;28;20981;-88
2022/09/21 12:19:27;;;;;;;0.90;0.63;;;23.10;1.00;;;;;;5056214;28;20759;-87
2022/09/21 12:21:59;;;;;;;2.80;0.23;;;21.80;1.00;;;;;;5055683;28;21006;-89
2022/09/21 12:24:46;;;;;;;1.20;0.50;;;21.60;1.00;;;;;;5055944;28;20416;-90
2022/09/21 12:27:42;;;;;;;1.63;0.60;;;22.60;1.00;;;;;;5054017;28;20420;-88
2022/09/21 12:30:20;;;;;;;0.90;0.30;;;23.60;1.00;;;;;;5055824;28;20920;-84
2022/09/21 12:32:57;;;;;;;0.80;0.30;;;24.20;1.00;;;;;;5054393;28;20408;-89
2022/09/21 12:35:35;;;;;;;1.00;0.40;;;24.30;1.00;;;;;;5054741;28;20424;-86
2022/09/21 12:38:28;;;;;;;0.80;0.50;;;24.60;1.00;;;;;;5054060;28;20939;-91
2022/09/21 12:41:14;;;;;;;0.60;0.30;;;24.80;1.00;;;;;;5037456;28;20523;-89
2022/09/21 12:43:55;;;;;;;1.90;0.60;;;25.10;1.00;;;;;;5055693;28;20468;-88
2022/09/21 12:46:39;;;;;;;1.73;0.40;;;25.00;1.00;;;;;;5055203;28;20924;-88
2022/09/21 12:49:13;;;;;;;1.90;0.50;;;24.80;1.00;;;;;;5055785;28;20558;-88
2022/09/21 12:51:47;;;;;;;1.30;0.60;;;24.70;1.00;;;;;;5055268;28;20393;-90
2022/09/21 12:54:39;;;;;;;1.37;0.40;;;24.70;1.00;;;;;;5055053;28;20457;-91
2022/09/21 12:57:23;;;;;;;0.57;0.30;;;24.60;1.00;;;;;;5055038;28;20408;-89
2022/09/21 12:59:59;;;;;;;0.87;0.40;;;24.30;1.00;;;;;;5056447;28;20432;-88
2022/09/21 13:02:56;;;;;;;2.03;0.80;;;24.20;1.00;;;;;;5055744;28;20775;-86
2022/09/21 13:05:40;;;;;;;2.87;0.47;;;23.60;1.00;;;;;;5053866;28;20454;-88
2022/09/21 13:08:24;;;;;;;1.13;0.40;;;23.40;1.00;;;;;;5054912;28;20447;-88
2022/09/21 13:11:00;;;;;;;1.60;0.40;;;23.00;1.00;;;;;;5054737;28;20408;-86
2022/09/21 13:13:34;;;;;;;1.63;0.50;;;22.50;1.00;;;;;;5054723;28;20804;-85
2022/09/21 13:16:03;;;;;;;0.70;0.47;;;22.40;1.00;;;;;;5054149;28;20438;-86
2022/09/21 13:18:33;;;;;;;0.80;0.30;;;22.30;1.00;;;;;;5053959;28;20442;-85
2022/09/21 13:21:01;;;;;;;1.10;0.50;;;22.40;1.00;;;;;;5049100;28;20752;-86
2022/09/21 13:23:41;;;;;;;1.50;0.30;;;22.20;1.00;;;;;;5024673;28;20417;-85
2022/09/21 13:26:09;;;;;;;1.53;0.53;;;21.80;1.00;;;;;;5006145;28;20429;-83
2022/09/21 13:28:41;;;;;;;0.80;0.20;;;21.00;1.00;;;;;;5013586;28;20508;-83
2022/09/21 13:31:16;;;;;;;2.60;0.30;;;20.20;1.00;;;;;;5014677;28;20954;-83